SCSE/LSC METAR and TAF weather

Enter ICAO airport designator
Station Type Date Time Source
SCSE METAR 2020/08/05 16:00 UTC NOAA

SCSE 051600Z 29010KT CAVOK 16/11 Q1020


Station Type Date Time Source
SCSE Decoded METAR 2020/08/05 16:00 UTC NOAA

La Serena, Chile (SCSE) 29-54S 071-12W
Aug 05, 2020 - 12:00 PM EDT / 2020.08.05 1600 UTC
Wind: from the WNW (290 degrees) at 12 MPH (10 KT):0
Visibility: greater than 7 mile(s):0
Temperature: 60 F (16 C)
Dew Point: 51 F (11 C)
Relative Humidity: 72%
Pressure (altimeter): 30.12 in. Hg (1020 hPa)
ob: SCSE 051600Z 29010KT CAVOK 16/11 Q1020
cycle: 16

Station Type Date Time Source
SCSE TAF 2020/08/05 12:03 UTC NOAA

TAF TAF SCSE 051023Z 0512/0612 13004KT CAVOK TX17/0518Z TN10/0610Z
BECMG 0515/0517 29006KT
BECMG 0518/0520 29012KT
BECMG 0601/0603 04004KT
TEMPO 0606/0612 VRB02KT BKN010

Example: see airport list